»·PEaware :: WAT175 KSAN-KRNO

WAT175 :: KSAN-KRNO

FLIGHT INFORMATION

Flight Status: Arrived
Operator: Unknown
More flights by this operator :: More flights under this callsign
Pilot: Anonymous 27126 (27126)
Aircraft: BOEING 737-800
(B738)
More flights by this aircraft type
Origin: KSAN San Diego Intl-Lindbergh
United States
Destination: KRNO Reno/Tahoe Intl
United States
More flights between these airports :: More routes between these airports
Route: +PADRZ2 EHF SNKIS RUSME2
File this flight plan on PilotEdge
Remarks: RMK / SIMBRIEF
Altitude:
(Current/Filed)
36,000ft
Speed:
(Current/Filed)
452kts
Departed: 22-May-20 07:31 PM
Arrived: 22-May-20 08:44 PM
Distance/Time
Traveled:
425nm/1:13
Distance/Time
To Go:
Arrived

Flight Plot

Page will automatically refresh every two minutes.


Map Options




Map Legend


Flown Route
Filed Route
Departure Airport
Arrival Airport
Navaid (VOR, NDB)
Fix

Horizontal Profiles

Position Reports

Time Latitude Longitude Heading Altitude Ground
Speed
22-May-20 19:03 32.733912 -117.200465 259 25ft 0kts
22-May-20 19:04 32.733913 -117.200465 259 25ft 0kts
22-May-20 19:05 32.733913 -117.200465 259 25ft 0kts
22-May-20 19:06 32.733913 -117.200465 259 25ft 0kts
22-May-20 19:07 32.733913 -117.200465 259 25ft 0kts
22-May-20 19:08 32.733913 -117.200465 259 25ft 0kts
22-May-20 19:09 32.733913 -117.200465 259 25ft 0kts
22-May-20 19:10 32.733913 -117.200465 259 25ft 0kts
22-May-20 19:11 32.733913 -117.200465 259 25ft 0kts
22-May-20 19:12 32.733913 -117.200465 259 25ft 0kts
22-May-20 19:13 32.733913 -117.200465 259 25ft 0kts
22-May-20 19:14 32.733913 -117.200465 259 25ft 0kts
22-May-20 19:15 32.733913 -117.200465 259 25ft 0kts
22-May-20 19:16 32.733913 -117.200465 259 25ft 0kts
22-May-20 19:18 32.733913 -117.200465 259 25ft 0kts
22-May-20 19:19 32.733913 -117.200465 259 25ft 0kts
22-May-20 19:20 32.733913 -117.200464 259 25ft 0kts
22-May-20 19:21 32.733913 -117.200464 259 25ft 0kts
22-May-20 19:22 32.733954 -117.200195 259 25ft 2kts
22-May-20 19:23 32.733760 -117.199722 11 25ft 0kts
22-May-20 19:24 32.733692 -117.199747 14 25ft 0kts
22-May-20 19:25 32.733692 -117.199747 14 25ft 0kts
22-May-20 19:26 32.734352 -117.197198 106 25ft 19kts
22-May-20 19:27 32.732638 -117.190123 106 25ft 21kts
22-May-20 19:28 32.731041 -117.183504 106 25ft 19kts
22-May-20 19:29 32.729575 -117.177537 106 25ft 17kts
22-May-20 19:30 32.729554 -117.176588 75 25ft 8kts
22-May-20 19:31 32.730664 -117.177967 283 25ft 57kts
22-May-20 19:32 32.743335 -117.227161 288 1986ft 174kts
22-May-20 19:33 32.776812 -117.281892 302 3881ft 250kts
22-May-20 19:34 32.820951 -117.351591 305 7328ft 271kts
22-May-20 19:35 32.867928 -117.424301 305 10448ft 292kts
22-May-20 19:35 32.913246 -117.494670 306 12250ft 331kts
22-May-20 19:37 32.980307 -117.599192 306 14967ft 348kts
22-May-20 19:37 33.028133 -117.673835 305 14992ft 340kts
22-May-20 19:38 33.091842 -117.758285 316 15002ft 355kts
22-May-20 19:39 33.172058 -117.839719 317 16810ft 389kts
22-May-20 19:40 33.257493 -117.924115 318 19108ft 401kts
22-May-20 19:41 33.345187 -118.009571 318 21164ft 413kts
22-May-20 19:42 33.435637 -118.098030 318 23002ft 424kts
22-May-20 19:43 33.527968 -118.188525 319 24686ft 433kts
22-May-20 19:44 33.633497 -118.263462 330 26249ft 445kts
22-May-20 19:45 33.745286 -118.328271 332 28154ft 442kts
22-May-20 19:46 33.851164 -118.383507 334 29905ft 437kts
22-May-20 19:47 33.964518 -118.438424 340 31550ft 434kts
22-May-20 19:48 34.077931 -118.467762 347 33008ft 433kts
22-May-20 19:49 34.182892 -118.486446 348 34195ft 429kts
22-May-20 19:50 34.299409 -118.505154 349 35356ft 427kts
22-May-20 19:51 34.418083 -118.523628 349 35951ft 437kts
22-May-20 19:52 34.541001 -118.542698 349 35951ft 449kts
22-May-20 19:53 34.664050 -118.561769 349 35930ft 446kts
22-May-20 19:54 34.787283 -118.580962 349 35933ft 447kts
22-May-20 19:55 34.910739 -118.600213 348 35980ft 447kts
22-May-20 19:56 35.027117 -118.641832 327 35980ft 430kts
22-May-20 19:57 35.115328 -118.720369 316 35949ft 424kts
22-May-20 19:58 35.203704 -118.810090 316 35857ft 424kts
22-May-20 19:59 35.293950 -118.901882 316 35844ft 419kts
22-May-20 20:00 35.383215 -118.992925 317 35844ft 415kts
22-May-20 20:01 35.472007 -119.073899 331 35844ft 419kts
22-May-20 20:02 35.587611 -119.107178 346 35844ft 432kts
22-May-20 20:03 35.706849 -119.125555 347 35847ft 433kts
22-May-20 20:04 35.826544 -119.141958 347 35873ft 433kts
22-May-20 20:05 35.946263 -119.157929 347 35881ft 434kts
22-May-20 20:06 36.066271 -119.173855 348 35881ft 433kts
22-May-20 20:07 36.186065 -119.189775 348 35880ft 433kts
22-May-20 20:08 36.305340 -119.205663 347 35881ft 433kts
22-May-20 20:09 36.425048 -119.221661 347 35880ft 433kts
22-May-20 20:10 36.544561 -119.237676 347 35881ft 433kts
22-May-20 20:11 36.665956 -119.223109 6 35881ft 450kts
22-May-20 20:12 36.787021 -119.225856 347 35892ft 433kts
22-May-20 20:13 36.905941 -119.247139 344 35910ft 430kts
22-May-20 20:14 37.025730 -119.247372 15 35915ft 457kts
22-May-20 20:15 37.113309 -119.129997 60 35977ft 500kts
22-May-20 20:16 37.207235 -119.017477 9 36039ft 449kts
22-May-20 20:17 37.322621 -119.031533 335 36045ft 418kts
22-May-20 20:18 37.432457 -119.080421 335 36045ft 418kts
22-May-20 20:19 37.542337 -119.129511 335 36045ft 418kts
22-May-20 20:20 37.652220 -119.178668 335 36045ft 418kts
22-May-20 20:21 37.760917 -119.227266 335 36043ft 391kts
22-May-20 20:22 37.861138 -119.272153 335 36046ft 388kts
22-May-20 20:23 37.963616 -119.318221 335 35013ft 392kts
22-May-20 20:24 38.065045 -119.363801 336 32907ft 388kts
22-May-20 20:25 38.166754 -119.409641 338 30826ft 396kts
22-May-20 20:26 38.270099 -119.456253 340 28195ft 397kts
22-May-20 20:27 38.371200 -119.501960 341 25416ft 359kts
22-May-20 20:28 38.463226 -119.543580 342 23356ft 368kts
22-May-20 20:29 38.560070 -119.587541 343 21164ft 364kts
22-May-20 20:30 38.653544 -119.630065 343 19364ft 344kts
22-May-20 20:31 38.741454 -119.670129 342 18537ft 331kts
22-May-20 20:32 38.812588 -119.753223 327 17333ft 344kts
22-May-20 20:33 38.901348 -119.772077 3 14988ft 318kts
22-May-20 20:34 38.987148 -119.770590 0 12996ft 284kts
22-May-20 20:35 39.057451 -119.770422 0 12552ft 249kts
22-May-20 20:36 39.127880 -119.770264 0 10987ft 243kts
22-May-20 20:37 39.193532 -119.770083 359 10334ft 243kts
22-May-20 20:38 39.260383 -119.769906 359 9231ft 242kts
22-May-20 20:39 39.325968 -119.770075 359 8099ft 226kts
22-May-20 20:40 39.386716 -119.769855 0 6694ft 192kts
22-May-20 20:41 39.430908 -119.769107 1 5728ft 145kts
22-May-20 20:42 39.473019 -119.769264 0 4711ft 154kts
22-May-20 20:43 39.505102 -119.769258 358 4425ft 26kts
22-May-20 20:44 39.510937 -119.769723 287 4425ft 16kts
22-May-20 20:45 39.508355 -119.771491 180 4425ft 14kts
22-May-20 20:46 39.505807 -119.773016 227 4425ft 6kts
22-May-20 20:47 39.505286 -119.773194 180 4425ft 0kts
22-May-20 20:48 39.505286 -119.773194 180 4425ft 0kts
22-May-20 20:49 39.505286 -119.773194 180 4425ft 0kts
22-May-20 20:50 39.505286 -119.773194 180 4425ft 0kts

Navigation Log

Ident Type
Flight plan parsing failed, navigation log unavailable